Alpha, Ohio
Current Conditions -  °F | °C
As of 3:58 AM on Thursday 27 Nov 2014 (Local Time) from KFFO Reporting Station
Overcast Overcast  
Wind Chill: 21°   Ceiling: 12000
Heat Index: 28°   Visibility: 10mi
Dew Point: 25°   Wind: 7mph
Humidity: 89%   Direction: 320°NW
Pressure: 30.09"   Gusts: NA
Location:  39.71°N, 84.02°W
Report Text: KFFO 270858Z AUTO 32006KT 10SM OVC120 M02/M04 A3009 RMK AO2 SLP201 T10231039 53009
Loading
Personal Weather Stations






























Interactive Weather Map New forecast layout! Learn more

10-Day Weather Forecast

Advertisements
Track Severe Weather on mobile